sensor_id;sensor_type;location;lat;lon;timestamp;P1;durP1;ratioP1;P2;durP2;ratioP2
85668;SDS011;76101;44.794;10.344;2024-02-21T00:01:29;20.33;;;11.23;;
85668;SDS011;76101;44.794;10.344;2024-02-21T00:04:30;20.65;;;11.50;;
85668;SDS011;76101;44.794;10.344;2024-02-21T00:07:30;21.48;;;12.43;;
85668;SDS011;76101;44.794;10.344;2024-02-21T00:10:31;23.03;;;11.90;;
85668;SDS011;76101;44.794;10.344;2024-02-21T00:13:35;19.85;;;10.70;;
85668;SDS011;76101;44.794;10.344;2024-02-21T00:16:35;21.02;;;11.63;;
85668;SDS011;76101;44.794;10.344;2024-02-21T00:19:36;19.92;;;10.25;;
85668;SDS011;76101;44.794;10.344;2024-02-21T00:22:36;18.48;;;9.75;;
85668;SDS011;76101;44.794;10.344;2024-02-21T00:25:37;19.95;;;10.55;;
85668;SDS011;76101;44.794;10.344;2024-02-21T00:28:38;19.15;;;9.93;;
85668;SDS011;76101;44.794;10.344;2024-02-21T00:31:38;20.35;;;10.27;;
85668;SDS011;76101;44.794;10.344;2024-02-21T00:34:38;18.75;;;10.27;;
85668;SDS011;76101;44.794;10.344;2024-02-21T00:37:39;19.30;;;10.70;;
85668;SDS011;76101;44.794;10.344;2024-02-21T00:40:39;20.33;;;10.07;;
85668;SDS011;76101;44.794;10.344;2024-02-21T00:43:41;16.97;;;9.53;;
85668;SDS011;76101;44.794;10.344;2024-02-21T00:46:44;17.95;;;9.07;;
85668;SDS011;76101;44.794;10.344;2024-02-21T00:49:44;18.17;;;9.40;;
85668;SDS011;76101;44.794;10.344;2024-02-21T00:52:44;16.10;;;8.70;;
85668;SDS011;76101;44.794;10.344;2024-02-21T00:59:05;16.10;;;9.02;;
85668;SDS011;76101;44.794;10.344;2024-02-21T01:02:06;15.95;;;8.45;;
85668;SDS011;76101;44.794;10.344;2024-02-21T01:05:06;17.80;;;9.23;;
85668;SDS011;76101;44.794;10.344;2024-02-21T01:08:07;16.20;;;8.85;;
85668;SDS011;76101;44.794;10.344;2024-02-21T01:11:07;16.40;;;9.10;;
85668;SDS011;76101;44.794;10.344;2024-02-21T01:14:08;16.52;;;9.05;;
85668;SDS011;76101;44.794;10.344;2024-02-21T01:17:08;16.15;;;9.50;;
85668;SDS011;76101;44.794;10.344;2024-02-21T01:20:09;16.05;;;9.25;;
85668;SDS011;76101;44.794;10.344;2024-02-21T01:23:09;19.30;;;9.43;;
85668;SDS011;76101;44.794;10.344;2024-02-21T01:26:10;17.27;;;9.38;;
85668;SDS011;76101;44.794;10.344;2024-02-21T01:29:13;16.70;;;9.25;;
85668;SDS011;76101;44.794;10.344;2024-02-21T01:32:13;17.77;;;9.75;;
85668;SDS011;76101;44.794;10.344;2024-02-21T01:35:13;16.80;;;9.57;;
85668;SDS011;76101;44.794;10.344;2024-02-21T01:38:14;18.23;;;9.50;;
85668;SDS011;76101;44.794;10.344;2024-02-21T01:41:14;17.20;;;9.53;;
85668;SDS011;76101;44.794;10.344;2024-02-21T01:44:16;16.23;;;9.05;;
85668;SDS011;76101;44.794;10.344;2024-02-21T01:47:16;17.40;;;9.05;;
85668;SDS011;76101;44.794;10.344;2024-02-21T01:50:17;16.77;;;9.27;;
85668;SDS011;76101;44.794;10.344;2024-02-21T01:53:22;18.25;;;9.32;;
85668;SDS011;76101;44.794;10.344;2024-02-21T01:56:25;16.58;;;8.65;;
85668;SDS011;76101;44.794;10.344;2024-02-21T01:59:25;16.38;;;9.18;;
85668;SDS011;76101;44.794;10.344;2024-02-21T02:02:26;15.93;;;9.30;;
85668;SDS011;76101;44.794;10.344;2024-02-21T02:05:26;17.15;;;9.07;;
85668;SDS011;76101;44.794;10.344;2024-02-21T02:08:27;16.35;;;8.85;;
85668;SDS011;76101;44.794;10.344;2024-02-21T02:11:27;17.10;;;9.02;;
85668;SDS011;76101;44.794;10.344;2024-02-21T02:14:28;17.40;;;9.45;;
85668;SDS011;76101;44.794;10.344;2024-02-21T02:17:28;17.35;;;8.73;;
85668;SDS011;76101;44.794;10.344;2024-02-21T02:20:29;17.37;;;9.43;;
85668;SDS011;76101;44.794;10.344;2024-02-21T02:23:29;15.93;;;9.20;;
85668;SDS011;76101;44.794;10.344;2024-02-21T02:26:33;17.08;;;9.45;;
85668;SDS011;76101;44.794;10.344;2024-02-21T02:29:34;17.20;;;9.18;;
85668;SDS011;76101;44.794;10.344;2024-02-21T02:32:34;19.98;;;9.80;;
85668;SDS011;76101;44.794;10.344;2024-02-21T02:35:36;17.83;;;10.05;;
85668;SDS011;76101;44.794;10.344;2024-02-21T02:38:36;18.50;;;9.45;;
85668;SDS011;76101;44.794;10.344;2024-02-21T02:41:37;16.92;;;8.80;;
85668;SDS011;76101;44.794;10.344;2024-02-21T02:44:37;18.67;;;9.80;;
85668;SDS011;76101;44.794;10.344;2024-02-21T02:47:39;19.70;;;9.43;;
85668;SDS011;76101;44.794;10.344;2024-02-21T02:50:40;18.75;;;8.98;;
85668;SDS011;76101;44.794;10.344;2024-02-21T02:53:40;17.88;;;10.13;;
85668;SDS011;76101;44.794;10.344;2024-02-21T02:56:40;18.17;;;9.80;;
85668;SDS011;76101;44.794;10.344;2024-02-21T02:59:41;18.65;;;10.00;;
85668;SDS011;76101;44.794;10.344;2024-02-21T03:02:42;20.27;;;10.50;;
85668;SDS011;76101;44.794;10.344;2024-02-21T03:05:45;18.48;;;9.60;;
85668;SDS011;76101;44.794;10.344;2024-02-21T03:08:46;18.30;;;9.90;;
85668;SDS011;76101;44.794;10.344;2024-02-21T03:11:46;19.48;;;10.13;;
85668;SDS011;76101;44.794;10.344;2024-02-21T03:14:47;20.10;;;10.38;;
85668;SDS011;76101;44.794;10.344;2024-02-21T03:17:47;19.67;;;10.30;;
85668;SDS011;76101;44.794;10.344;2024-02-21T03:20:47;19.40;;;10.35;;
85668;SDS011;76101;44.794;10.344;2024-02-21T03:23:48;20.13;;;10.00;;
85668;SDS011;76101;44.794;10.344;2024-02-21T03:26:48;19.42;;;10.13;;
85668;SDS011;76101;44.794;10.344;2024-02-21T03:29:49;19.35;;;9.52;;
85668;SDS011;76101;44.794;10.344;2024-02-21T03:32:50;19.17;;;10.45;;
85668;SDS011;76101;44.794;10.344;2024-02-21T03:35:50;17.33;;;9.32;;
85668;SDS011;76101;44.794;10.344;2024-02-21T03:38:51;18.27;;;9.77;;
85668;SDS011;76101;44.794;10.344;2024-02-21T03:41:51;17.07;;;8.67;;
85668;SDS011;76101;44.794;10.344;2024-02-21T03:44:51;20.00;;;9.67;;
85668;SDS011;76101;44.794;10.344;2024-02-21T03:47:52;18.20;;;9.40;;
85668;SDS011;76101;44.794;10.344;2024-02-21T03:50:52;17.10;;;9.10;;
85668;SDS011;76101;44.794;10.344;2024-02-21T03:53:53;15.88;;;8.60;;
85668;SDS011;76101;44.794;10.344;2024-02-21T03:56:53;15.93;;;8.43;;
85668;SDS011;76101;44.794;10.344;2024-02-21T03:59:54;15.25;;;8.23;;
85668;SDS011;76101;44.794;10.344;2024-02-21T04:02:54;14.97;;;7.93;;
85668;SDS011;76101;44.794;10.344;2024-02-21T04:05:58;14.13;;;7.90;;
85668;SDS011;76101;44.794;10.344;2024-02-21T04:08:59;14.95;;;7.90;;
85668;SDS011;76101;44.794;10.344;2024-02-21T04:12:00;14.23;;;7.65;;
85668;SDS011;76101;44.794;10.344;2024-02-21T04:15:00;17.42;;;7.50;;
85668;SDS011;76101;44.794;10.344;2024-02-21T04:18:01;13.93;;;7.90;;
85668;SDS011;76101;44.794;10.344;2024-02-21T04:24:03;15.60;;;7.53;;
85668;SDS011;76101;44.794;10.344;2024-02-21T04:30:06;14.33;;;7.70;;
85668;SDS011;76101;44.794;10.344;2024-02-21T04:33:07;16.25;;;7.85;;
85668;SDS011;76101;44.794;10.344;2024-02-21T04:36:07;14.40;;;7.72;;
85668;SDS011;76101;44.794;10.344;2024-02-21T04:39:07;15.98;;;8.48;;
85668;SDS011;76101;44.794;10.344;2024-02-21T04:42:08;15.38;;;8.70;;
85668;SDS011;76101;44.794;10.344;2024-02-21T04:45:08;16.27;;;7.95;;
85668;SDS011;76101;44.794;10.344;2024-02-21T04:48:09;17.40;;;8.60;;
85668;SDS011;76101;44.794;10.344;2024-02-21T04:51:11;16.17;;;7.82;;
85668;SDS011;76101;44.794;10.344;2024-02-21T04:54:12;13.77;;;6.90;;
85668;SDS011;76101;44.794;10.344;2024-02-21T04:57:12;18.20;;;7.72;;
85668;SDS011;76101;44.794;10.344;2024-02-21T05:00:17;18.30;;;7.82;;
85668;SDS011;76101;44.794;10.344;2024-02-21T05:03:17;14.40;;;7.50;;
85668;SDS011;76101;44.794;10.344;2024-02-21T05:06:18;13.53;;;7.47;;
85668;SDS011;76101;44.794;10.344;2024-02-21T05:09:18;15.20;;;7.28;;
85668;SDS011;76101;44.794;10.344;2024-02-21T05:12:19;15.30;;;7.47;;
85668;SDS011;76101;44.794;10.344;2024-02-21T05:15:20;14.40;;;7.20;;
85668;SDS011;76101;44.794;10.344;2024-02-21T05:18:20;14.73;;;7.45;;
85668;SDS011;76101;44.794;10.344;2024-02-21T05:21:21;14.02;;;7.30;;
85668;SDS011;76101;44.794;10.344;2024-02-21T05:24:21;15.87;;;7.60;;
85668;SDS011;76101;44.794;10.344;2024-02-21T05:27:21;13.90;;;7.65;;
85668;SDS011;76101;44.794;10.344;2024-02-21T05:30:22;14.18;;;6.88;;
85668;SDS011;76101;44.794;10.344;2024-02-21T05:33:22;13.35;;;7.32;;
85668;SDS011;76101;44.794;10.344;2024-02-21T05:36:23;15.35;;;7.60;;
85668;SDS011;76101;44.794;10.344;2024-02-21T05:39:23;14.00;;;7.15;;
85668;SDS011;76101;44.794;10.344;2024-02-21T05:42:23;13.50;;;7.32;;
85668;SDS011;76101;44.794;10.344;2024-02-21T05:45:24;14.83;;;7.43;;
85668;SDS011;76101;44.794;10.344;2024-02-21T05:48:24;13.40;;;7.05;;
85668;SDS011;76101;44.794;10.344;2024-02-21T05:51:24;13.80;;;7.50;;
85668;SDS011;76101;44.794;10.344;2024-02-21T05:54:25;15.67;;;7.33;;
85668;SDS011;76101;44.794;10.344;2024-02-21T05:57:25;15.40;;;7.90;;
85668;SDS011;76101;44.794;10.344;2024-02-21T06:00:26;19.38;;;8.88;;
85668;SDS011;76101;44.794;10.344;2024-02-21T06:03:29;14.57;;;7.75;;
85668;SDS011;76101;44.794;10.344;2024-02-21T06:06:30;15.95;;;7.55;;
85668;SDS011;76101;44.794;10.344;2024-02-21T06:09:30;14.20;;;7.43;;
85668;SDS011;76101;44.794;10.344;2024-02-21T06:12:32;15.63;;;7.68;;
85668;SDS011;76101;44.794;10.344;2024-02-21T06:15:32;15.77;;;8.13;;
85668;SDS011;76101;44.794;10.344;2024-02-21T06:18:33;15.20;;;8.15;;
85668;SDS011;76101;44.794;10.344;2024-02-21T06:21:36;14.85;;;8.15;;
85668;SDS011;76101;44.794;10.344;2024-02-21T06:24:37;16.85;;;8.48;;
85668;SDS011;76101;44.794;10.344;2024-02-21T06:27:44;16.83;;;8.85;;
85668;SDS011;76101;44.794;10.344;2024-02-21T06:30:44;19.25;;;9.50;;
85668;SDS011;76101;44.794;10.344;2024-02-21T06:33:45;18.45;;;9.52;;
85668;SDS011;76101;44.794;10.344;2024-02-21T06:36:47;19.67;;;9.38;;
85668;SDS011;76101;44.794;10.344;2024-02-21T06:39:48;21.77;;;11.40;;
85668;SDS011;76101;44.794;10.344;2024-02-21T06:42:48;19.88;;;9.93;;
85668;SDS011;76101;44.794;10.344;2024-02-21T06:45:50;21.45;;;9.60;;
85668;SDS011;76101;44.794;10.344;2024-02-21T06:48:51;18.58;;;9.40;;
85668;SDS011;76101;44.794;10.344;2024-02-21T06:51:53;17.67;;;9.90;;
85668;SDS011;76101;44.794;10.344;2024-02-21T06:54:55;20.58;;;10.10;;
85668;SDS011;76101;44.794;10.344;2024-02-21T06:57:55;21.95;;;11.02;;
85668;SDS011;76101;44.794;10.344;2024-02-21T07:00:56;21.60;;;10.70;;
85668;SDS011;76101;44.794;10.344;2024-02-21T07:03:56;23.50;;;11.02;;
85668;SDS011;76101;44.794;10.344;2024-02-21T07:06:57;23.17;;;11.07;;
85668;SDS011;76101;44.794;10.344;2024-02-21T07:09:57;21.33;;;11.35;;
85668;SDS011;76101;44.794;10.344;2024-02-21T07:12:57;18.27;;;10.15;;
85668;SDS011;76101;44.794;10.344;2024-02-21T07:15:58;18.67;;;9.97;;
85668;SDS011;76101;44.794;10.344;2024-02-21T07:18:58;18.15;;;9.23;;
85668;SDS011;76101;44.794;10.344;2024-02-21T07:21:59;17.98;;;9.60;;
85668;SDS011;76101;44.794;10.344;2024-02-21T07:24:59;18.60;;;9.35;;
85668;SDS011;76101;44.794;10.344;2024-02-21T07:28:00;18.33;;;9.70;;
85668;SDS011;76101;44.794;10.344;2024-02-21T07:31:00;19.83;;;9.80;;
85668;SDS011;76101;44.794;10.344;2024-02-21T07:34:00;18.10;;;9.50;;
85668;SDS011;76101;44.794;10.344;2024-02-21T07:37:01;18.73;;;9.70;;
85668;SDS011;76101;44.794;10.344;2024-02-21T07:40:01;20.30;;;10.40;;
85668;SDS011;76101;44.794;10.344;2024-02-21T07:43:02;20.95;;;10.25;;
85668;SDS011;76101;44.794;10.344;2024-02-21T07:46:03;17.80;;;9.10;;
85668;SDS011;76101;44.794;10.344;2024-02-21T07:49:04;18.13;;;9.45;;
85668;SDS011;76101;44.794;10.344;2024-02-21T07:52:04;17.65;;;9.23;;
85668;SDS011;76101;44.794;10.344;2024-02-21T07:55:05;19.42;;;9.40;;
85668;SDS011;76101;44.794;10.344;2024-02-21T07:58:06;20.02;;;9.32;;
85668;SDS011;76101;44.794;10.344;2024-02-21T08:01:06;17.75;;;9.25;;
85668;SDS011;76101;44.794;10.344;2024-02-21T08:04:07;20.48;;;9.63;;
85668;SDS011;76101;44.794;10.344;2024-02-21T08:07:08;19.15;;;8.98;;
85668;SDS011;76101;44.794;10.344;2024-02-21T08:10:09;24.83;;;9.98;;
85668;SDS011;76101;44.794;10.344;2024-02-21T08:13:10;18.70;;;9.45;;
85668;SDS011;76101;44.794;10.344;2024-02-21T08:16:10;17.58;;;9.40;;
85668;SDS011;76101;44.794;10.344;2024-02-21T08:19:11;17.75;;;9.52;;
85668;SDS011;76101;44.794;10.344;2024-02-21T08:22:11;18.05;;;9.70;;
85668;SDS011;76101;44.794;10.344;2024-02-21T08:25:12;20.60;;;9.95;;
85668;SDS011;76101;44.794;10.344;2024-02-21T08:28:13;19.05;;;8.95;;
85668;SDS011;76101;44.794;10.344;2024-02-21T08:31:20;19.77;;;9.18;;
85668;SDS011;76101;44.794;10.344;2024-02-21T08:34:20;16.40;;;8.73;;
85668;SDS011;76101;44.794;10.344;2024-02-21T08:37:21;18.07;;;9.30;;
85668;SDS011;76101;44.794;10.344;2024-02-21T08:40:42;18.33;;;9.73;;
85668;SDS011;76101;44.794;10.344;2024-02-21T08:43:42;18.90;;;9.80;;
85668;SDS011;76101;44.794;10.344;2024-02-21T08:54:33;19.88;;;10.98;;
85668;SDS011;76101;44.794;10.344;2024-02-21T08:57:33;23.80;;;12.20;;
85668;SDS011;76101;44.794;10.344;2024-02-21T09:21:59;24.80;;;13.70;;
85668;SDS011;76101;44.794;10.344;2024-02-21T09:29:08;26.92;;;14.57;;
85668;SDS011;76101;44.794;10.344;2024-02-21T09:32:08;33.22;;;16.52;;
85668;SDS011;76101;44.794;10.344;2024-02-21T09:35:09;27.83;;;14.93;;
85668;SDS011;76101;44.794;10.344;2024-02-21T09:42:07;30.30;;;16.10;;
85668;SDS011;76101;44.794;10.344;2024-02-21T09:52:30;29.27;;;14.85;;
85668;SDS011;76101;44.794;10.344;2024-02-21T10:07:25;29.25;;;15.05;;
85668;SDS011;76101;44.794;10.344;2024-02-21T10:10:44;31.27;;;16.10;;
85668;SDS011;76101;44.794;10.344;2024-02-21T10:13:48;31.30;;;16.75;;
85668;SDS011;76101;44.794;10.344;2024-02-21T10:16:56;29.73;;;16.95;;
85668;SDS011;76101;44.794;10.344;2024-02-21T10:20:08;31.10;;;16.67;;
85668;SDS011;76101;44.794;10.344;2024-02-21T10:23:09;29.20;;;15.18;;
85668;SDS011;76101;44.794;10.344;2024-02-21T10:26:10;29.33;;;16.05;;
85668;SDS011;76101;44.794;10.344;2024-02-21T10:29:11;30.73;;;16.38;;
85668;SDS011;76101;44.794;10.344;2024-02-21T10:32:12;28.42;;;15.98;;
85668;SDS011;76101;44.794;10.344;2024-02-21T10:35:13;29.35;;;17.67;;
85668;SDS011;76101;44.794;10.344;2024-02-21T10:38:14;31.90;;;18.13;;
85668;SDS011;76101;44.794;10.344;2024-02-21T10:41:14;33.25;;;17.85;;
85668;SDS011;76101;44.794;10.344;2024-02-21T10:44:18;33.70;;;18.88;;
85668;SDS011;76101;44.794;10.344;2024-02-21T10:47:20;36.47;;;19.05;;
85668;SDS011;76101;44.794;10.344;2024-02-21T10:50:24;35.63;;;18.52;;
85668;SDS011;76101;44.794;10.344;2024-02-21T10:56:32;34.40;;;19.20;;
85668;SDS011;76101;44.794;10.344;2024-02-21T10:59:37;34.28;;;18.30;;
85668;SDS011;76101;44.794;10.344;2024-02-21T11:02:40;40.70;;;20.98;;
85668;SDS011;76101;44.794;10.344;2024-02-21T11:05:44;35.25;;;20.65;;
85668;SDS011;76101;44.794;10.344;2024-02-21T11:08:45;36.17;;;20.58;;
85668;SDS011;76101;44.794;10.344;2024-02-21T11:11:46;35.28;;;21.00;;
85668;SDS011;76101;44.794;10.344;2024-02-21T11:14:46;34.28;;;19.45;;
85668;SDS011;76101;44.794;10.344;2024-02-21T11:17:56;33.90;;;19.13;;
85668;SDS011;76101;44.794;10.344;2024-02-21T11:20:57;37.63;;;21.33;;
85668;SDS011;76101;44.794;10.344;2024-02-21T11:23:57;36.15;;;19.92;;
85668;SDS011;76101;44.794;10.344;2024-02-21T11:27:20;38.65;;;21.30;;
85668;SDS011;76101;44.794;10.344;2024-02-21T11:30:26;37.78;;;22.75;;
85668;SDS011;76101;44.794;10.344;2024-02-21T11:33:27;36.13;;;20.75;;
85668;SDS011;76101;44.794;10.344;2024-02-21T11:36:27;38.67;;;20.67;;
85668;SDS011;76101;44.794;10.344;2024-02-21T11:39:28;35.88;;;20.45;;
85668;SDS011;76101;44.794;10.344;2024-02-21T11:42:29;37.33;;;21.75;;
85668;SDS011;76101;44.794;10.344;2024-02-21T11:45:30;33.85;;;19.67;;
85668;SDS011;76101;44.794;10.344;2024-02-21T11:48:32;34.40;;;21.10;;
85668;SDS011;76101;44.794;10.344;2024-02-21T11:51:35;36.60;;;20.88;;
85668;SDS011;76101;44.794;10.344;2024-02-21T11:54:35;39.65;;;22.73;;
85668;SDS011;76101;44.794;10.344;2024-02-21T11:57:39;34.35;;;20.63;;
85668;SDS011;76101;44.794;10.344;2024-02-21T12:00:43;41.38;;;21.25;;
85668;SDS011;76101;44.794;10.344;2024-02-21T12:03:43;39.53;;;22.85;;
85668;SDS011;76101;44.794;10.344;2024-02-21T12:06:52;41.10;;;21.67;;
85668;SDS011;76101;44.794;10.344;2024-02-21T12:09:54;46.80;;;23.00;;
85668;SDS011;76101;44.794;10.344;2024-02-21T12:13:04;39.45;;;22.48;;
85668;SDS011;76101;44.794;10.344;2024-02-21T12:16:08;36.42;;;21.85;;
85668;SDS011;76101;44.794;10.344;2024-02-21T12:19:09;36.22;;;22.45;;
85668;SDS011;76101;44.794;10.344;2024-02-21T12:22:09;34.67;;;21.60;;
85668;SDS011;76101;44.794;10.344;2024-02-21T12:28:29;35.53;;;21.58;;
85668;SDS011;76101;44.794;10.344;2024-02-21T12:31:30;39.20;;;23.38;;
85668;SDS011;76101;44.794;10.344;2024-02-21T12:34:30;37.28;;;23.13;;
85668;SDS011;76101;44.794;10.344;2024-02-21T12:37:32;37.22;;;22.15;;
85668;SDS011;76101;44.794;10.344;2024-02-21T12:40:33;37.13;;;21.58;;
85668;SDS011;76101;44.794;10.344;2024-02-21T12:43:33;36.50;;;22.63;;
85668;SDS011;76101;44.794;10.344;2024-02-21T12:46:34;38.90;;;23.50;;
85668;SDS011;76101;44.794;10.344;2024-02-21T12:49:35;37.42;;;21.42;;
85668;SDS011;76101;44.794;10.344;2024-02-21T12:52:35;42.67;;;23.83;;
85668;SDS011;76101;44.794;10.344;2024-02-21T12:55:36;37.88;;;23.50;;
85668;SDS011;76101;44.794;10.344;2024-02-21T12:58:40;39.47;;;22.52;;
85668;SDS011;76101;44.794;10.344;2024-02-21T13:01:41;38.15;;;22.10;;
85668;SDS011;76101;44.794;10.344;2024-02-21T13:04:41;38.40;;;23.50;;
85668;SDS011;76101;44.794;10.344;2024-02-21T13:07:42;37.20;;;22.98;;
85668;SDS011;76101;44.794;10.344;2024-02-21T13:10:42;37.67;;;23.63;;
85668;SDS011;76101;44.794;10.344;2024-02-21T13:13:43;38.10;;;23.92;;
85668;SDS011;76101;44.794;10.344;2024-02-21T13:16:44;37.45;;;24.30;;
85668;SDS011;76101;44.794;10.344;2024-02-21T13:19:44;39.75;;;22.33;;
85668;SDS011;76101;44.794;10.344;2024-02-21T13:22:44;35.97;;;22.27;;
85668;SDS011;76101;44.794;10.344;2024-02-21T13:25:45;34.38;;;21.35;;
85668;SDS011;76101;44.794;10.344;2024-02-21T13:28:45;34.72;;;20.95;;
85668;SDS011;76101;44.794;10.344;2024-02-21T13:31:48;37.13;;;22.17;;
85668;SDS011;76101;44.794;10.344;2024-02-21T13:34:49;36.50;;;21.83;;
85668;SDS011;76101;44.794;10.344;2024-02-21T13:37:52;36.55;;;21.67;;
85668;SDS011;76101;44.794;10.344;2024-02-21T13:40:52;40.08;;;22.73;;
85668;SDS011;76101;44.794;10.344;2024-02-21T13:43:53;35.03;;;22.42;;
85668;SDS011;76101;44.794;10.344;2024-02-21T13:46:54;33.88;;;20.65;;
85668;SDS011;76101;44.794;10.344;2024-02-21T13:49:54;36.40;;;21.63;;
85668;SDS011;76101;44.794;10.344;2024-02-21T13:52:55;37.90;;;21.92;;
85668;SDS011;76101;44.794;10.344;2024-02-21T13:55:56;36.75;;;22.25;;
85668;SDS011;76101;44.794;10.344;2024-02-21T13:58:57;35.30;;;21.33;;
85668;SDS011;76101;44.794;10.344;2024-02-21T14:01:59;38.00;;;21.65;;
85668;SDS011;76101;44.794;10.344;2024-02-21T14:05:00;35.08;;;20.65;;
85668;SDS011;76101;44.794;10.344;2024-02-21T14:08:00;36.28;;;22.17;;
85668;SDS011;76101;44.794;10.344;2024-02-21T14:11:01;32.90;;;20.00;;
85668;SDS011;76101;44.794;10.344;2024-02-21T14:14:01;29.05;;;18.00;;
85668;SDS011;76101;44.794;10.344;2024-02-21T14:17:02;35.33;;;21.13;;
85668;SDS011;76101;44.794;10.344;2024-02-21T14:20:04;35.75;;;22.50;;
85668;SDS011;76101;44.794;10.344;2024-02-21T14:23:05;35.72;;;22.23;;
85668;SDS011;76101;44.794;10.344;2024-02-21T14:26:05;35.53;;;21.73;;
85668;SDS011;76101;44.794;10.344;2024-02-21T14:29:06;36.03;;;22.08;;
85668;SDS011;76101;44.794;10.344;2024-02-21T14:32:07;37.53;;;22.90;;
85668;SDS011;76101;44.794;10.344;2024-02-21T14:35:09;39.58;;;23.05;;
85668;SDS011;76101;44.794;10.344;2024-02-21T14:38:10;37.47;;;22.27;;
85668;SDS011;76101;44.794;10.344;2024-02-21T14:41:10;35.53;;;22.00;;
85668;SDS011;76101;44.794;10.344;2024-02-21T14:44:14;37.47;;;22.60;;
85668;SDS011;76101;44.794;10.344;2024-02-21T14:47:14;38.08;;;23.38;;
85668;SDS011;76101;44.794;10.344;2024-02-21T14:50:14;32.80;;;19.70;;
85668;SDS011;76101;44.794;10.344;2024-02-21T14:53:15;37.63;;;22.55;;
85668;SDS011;76101;44.794;10.344;2024-02-21T14:59:17;37.85;;;21.60;;
85668;SDS011;76101;44.794;10.344;2024-02-21T15:02:18;38.47;;;22.88;;
85668;SDS011;76101;44.794;10.344;2024-02-21T15:05:18;40.45;;;23.70;;
85668;SDS011;76101;44.794;10.344;2024-02-21T15:08:19;32.83;;;20.77;;
85668;SDS011;76101;44.794;10.344;2024-02-21T15:11:19;39.60;;;23.70;;
85668;SDS011;76101;44.794;10.344;2024-02-21T15:14:22;35.25;;;22.58;;
85668;SDS011;76101;44.794;10.344;2024-02-21T15:17:23;41.33;;;23.65;;
85668;SDS011;76101;44.794;10.344;2024-02-21T15:20:23;36.05;;;22.05;;
85668;SDS011;76101;44.794;10.344;2024-02-21T15:23:23;41.55;;;23.63;;
85668;SDS011;76101;44.794;10.344;2024-02-21T15:26:24;39.22;;;23.95;;
85668;SDS011;76101;44.794;10.344;2024-02-21T15:29:25;40.47;;;25.08;;
85668;SDS011;76101;44.794;10.344;2024-02-21T15:32:25;40.13;;;24.10;;
85668;SDS011;76101;44.794;10.344;2024-02-21T15:35:26;41.67;;;24.35;;
85668;SDS011;76101;44.794;10.344;2024-02-21T15:38:26;41.38;;;24.63;;
85668;SDS011;76101;44.794;10.344;2024-02-21T15:41:28;40.72;;;24.27;;
85668;SDS011;76101;44.794;10.344;2024-02-21T15:44:29;37.53;;;22.55;;
85668;SDS011;76101;44.794;10.344;2024-02-21T15:47:29;40.72;;;24.30;;
85668;SDS011;76101;44.794;10.344;2024-02-21T15:50:30;36.38;;;22.63;;
85668;SDS011;76101;44.794;10.344;2024-02-21T15:53:30;37.75;;;22.88;;
85668;SDS011;76101;44.794;10.344;2024-02-21T15:56:31;42.88;;;23.15;;
85668;SDS011;76101;44.794;10.344;2024-02-21T15:59:32;36.03;;;22.83;;
85668;SDS011;76101;44.794;10.344;2024-02-21T16:02:36;38.08;;;22.40;;
85668;SDS011;76101;44.794;10.344;2024-02-21T16:05:36;37.22;;;22.95;;
85668;SDS011;76101;44.794;10.344;2024-02-21T16:08:36;38.60;;;23.33;;
85668;SDS011;76101;44.794;10.344;2024-02-21T16:11:40;38.85;;;22.98;;
85668;SDS011;76101;44.794;10.344;2024-02-21T16:14:41;40.13;;;23.42;;
85668;SDS011;76101;44.794;10.344;2024-02-21T16:17:42;40.97;;;24.63;;
85668;SDS011;76101;44.794;10.344;2024-02-21T16:20:42;39.80;;;24.05;;
85668;SDS011;76101;44.794;10.344;2024-02-21T16:23:43;42.85;;;25.67;;
85668;SDS011;76101;44.794;10.344;2024-02-21T16:26:43;42.95;;;25.30;;
85668;SDS011;76101;44.794;10.344;2024-02-21T16:29:44;41.92;;;24.02;;
85668;SDS011;76101;44.794;10.344;2024-02-21T16:32:44;47.50;;;25.25;;
85668;SDS011;76101;44.794;10.344;2024-02-21T16:35:45;42.25;;;24.35;;
85668;SDS011;76101;44.794;10.344;2024-02-21T16:38:46;40.10;;;24.58;;
85668;SDS011;76101;44.794;10.344;2024-02-21T16:41:46;39.17;;;24.38;;
85668;SDS011;76101;44.794;10.344;2024-02-21T16:44:49;45.20;;;24.70;;
85668;SDS011;76101;44.794;10.344;2024-02-21T16:50:51;39.27;;;23.80;;
85668;SDS011;76101;44.794;10.344;2024-02-21T16:53:51;38.30;;;23.50;;
85668;SDS011;76101;44.794;10.344;2024-02-21T16:56:52;38.72;;;23.23;;
85668;SDS011;76101;44.794;10.344;2024-02-21T16:59:52;39.90;;;23.70;;
85668;SDS011;76101;44.794;10.344;2024-02-21T17:02:59;40.13;;;24.98;;
85668;SDS011;76101;44.794;10.344;2024-02-21T17:05:59;40.78;;;23.88;;
85668;SDS011;76101;44.794;10.344;2024-02-21T17:09:00;45.67;;;25.02;;
85668;SDS011;76101;44.794;10.344;2024-02-21T17:12:01;44.95;;;24.92;;
85668;SDS011;76101;44.794;10.344;2024-02-21T17:15:04;39.70;;;23.88;;
85668;SDS011;76101;44.794;10.344;2024-02-21T17:18:05;39.03;;;23.90;;
85668;SDS011;76101;44.794;10.344;2024-02-21T17:21:06;42.67;;;24.42;;
85668;SDS011;76101;44.794;10.344;2024-02-21T17:24:07;41.35;;;24.35;;
85668;SDS011;76101;44.794;10.344;2024-02-21T17:27:10;40.40;;;23.88;;
85668;SDS011;76101;44.794;10.344;2024-02-21T17:30:11;42.17;;;24.88;;
85668;SDS011;76101;44.794;10.344;2024-02-21T17:33:11;44.67;;;24.50;;
85668;SDS011;76101;44.794;10.344;2024-02-21T17:36:12;44.55;;;25.55;;
85668;SDS011;76101;44.794;10.344;2024-02-21T17:42:29;41.63;;;24.95;;
85668;SDS011;76101;44.794;10.344;2024-02-21T17:45:32;44.75;;;26.50;;
85668;SDS011;76101;44.794;10.344;2024-02-21T17:48:36;43.42;;;24.77;;
85668;SDS011;76101;44.794;10.344;2024-02-21T17:51:37;47.92;;;24.85;;
85668;SDS011;76101;44.794;10.344;2024-02-21T17:54:37;43.38;;;24.67;;
85668;SDS011;76101;44.794;10.344;2024-02-21T17:57:43;47.08;;;25.70;;
85668;SDS011;76101;44.794;10.344;2024-02-21T18:00:43;44.78;;;25.23;;
85668;SDS011;76101;44.794;10.344;2024-02-21T18:03:45;41.75;;;24.15;;
85668;SDS011;76101;44.794;10.344;2024-02-21T18:06:45;43.63;;;24.05;;
85668;SDS011;76101;44.794;10.344;2024-02-21T18:09:46;45.38;;;24.00;;
85668;SDS011;76101;44.794;10.344;2024-02-21T18:12:50;40.45;;;24.33;;
85668;SDS011;76101;44.794;10.344;2024-02-21T18:15:50;42.90;;;25.23;;
85668;SDS011;76101;44.794;10.344;2024-02-21T18:18:51;42.47;;;24.83;;
85668;SDS011;76101;44.794;10.344;2024-02-21T18:21:54;44.72;;;25.90;;
85668;SDS011;76101;44.794;10.344;2024-02-21T18:24:57;42.72;;;24.08;;
85668;SDS011;76101;44.794;10.344;2024-02-21T18:37:56;48.97;;;25.33;;
85668;SDS011;76101;44.794;10.344;2024-02-21T18:40:57;47.90;;;26.10;;
85668;SDS011;76101;44.794;10.344;2024-02-21T18:43:58;45.47;;;25.50;;
85668;SDS011;76101;44.794;10.344;2024-02-21T18:46:59;46.50;;;25.73;;
85668;SDS011;76101;44.794;10.344;2024-02-21T18:50:00;45.20;;;25.10;;
85668;SDS011;76101;44.794;10.344;2024-02-21T18:53:01;48.28;;;26.40;;
85668;SDS011;76101;44.794;10.344;2024-02-21T18:56:22;46.83;;;25.48;;
85668;SDS011;76101;44.794;10.344;2024-02-21T18:59:26;49.53;;;27.10;;
85668;SDS011;76101;44.794;10.344;2024-02-21T19:02:28;47.72;;;25.83;;